createdAt,value
2023-09-06T00:04:11.897Z,75.59
2023-09-06T00:09:33.871Z,75.32
2023-09-06T00:14:55.699Z,76.75
2023-09-06T00:20:17.470Z,77.23
2023-09-06T00:25:39.195Z,76.74
2023-09-06T00:31:01.020Z,76.63
2023-09-06T00:36:22.876Z,77.78
2023-09-06T00:41:44.678Z,79.24
2023-09-06T00:47:06.597Z,77.97
2023-09-06T00:52:28.491Z,78.02
2023-09-06T00:57:50.470Z,79.17
2023-09-06T01:03:12.795Z,79.84
2023-09-06T01:08:43.704Z,79.68
2023-09-06T01:14:05.435Z,79.64
2023-09-06T01:19:30.776Z,79.84
2023-09-06T01:24:53.425Z,79.76
2023-09-06T01:30:15.441Z,79.81
2023-09-06T01:35:37.196Z,79.65
2023-09-06T01:40:58.921Z,80.31
2023-09-06T01:46:21.771Z,80.59
2023-09-06T01:51:45.047Z,81.02
2023-09-06T01:57:06.819Z,81.64
2023-09-06T02:02:28.724Z,81.66
2023-09-06T02:07:50.620Z,81.77
2023-09-06T02:13:12.387Z,82.59
2023-09-06T02:18:34.208Z,82.87
2023-09-06T02:23:55.948Z,82.26
2023-09-06T02:29:17.650Z,83.83
2023-09-06T02:34:39.413Z,84.83
2023-09-06T02:40:02.093Z,83.43
2023-09-06T02:45:23.866Z,83.58
2023-09-06T02:50:45.712Z,83.79
2023-09-06T02:56:07.457Z,84.28
2023-09-06T03:01:29.261Z,84.46
2023-09-06T03:06:51.231Z,86.21
2023-09-06T03:12:13.038Z,86.57
2023-09-06T03:17:34.906Z,85.44
2023-09-06T03:22:56.634Z,86.15
2023-09-06T03:28:18.897Z,87.28
2023-09-06T03:33:40.752Z,86.98
2023-09-06T03:39:02.508Z,87.57
2023-09-06T03:44:24.230Z,88.39
2023-09-06T03:49:46.126Z,88.85
2023-09-06T03:55:08.025Z,88.94
2023-09-06T04:00:29.793Z,89.06
2023-09-06T04:05:51.528Z,89.06
2023-09-06T04:11:14.900Z,88.50
2023-09-06T04:16:38.330Z,87.04
2023-09-06T04:22:00.147Z,88.07
2023-09-06T04:27:21.897Z,89.67
2023-09-06T04:32:44.561Z,88.17
2023-09-06T04:38:06.648Z,89.37
2023-09-06T04:43:28.574Z,88.59
2023-09-06T04:48:50.446Z,89.40
2023-09-06T04:54:12.184Z,89.66
2023-09-06T04:59:36.782Z,88.03
2023-09-06T05:04:58.496Z,87.90
2023-09-06T05:10:20.458Z,85.90
2023-09-06T05:15:42.211Z,83.73
2023-09-06T05:21:04.092Z,82.62
2023-09-06T05:26:25.828Z,83.36
2023-09-06T05:31:47.592Z,81.40
2023-09-06T05:37:09.385Z,80.30
2023-09-06T05:42:31.363Z,78.82
2023-09-06T05:47:53.757Z,78.45
2023-09-06T05:53:15.525Z,77.02
2023-09-06T05:58:37.266Z,76.41
2023-09-06T06:03:59.022Z,75.22
2023-09-06T06:09:20.856Z,74.29
2023-09-06T06:14:42.618Z,73.07
2023-09-06T06:20:05.126Z,72.20
2023-09-06T06:25:26.967Z,70.75
2023-09-06T06:30:48.712Z,69.33
2023-09-06T06:36:10.500Z,68.79
2023-09-06T06:41:32.370Z,66.47
2023-09-06T06:46:54.169Z,64.57
2023-09-06T06:52:16.008Z,30.50
2023-09-06T06:57:37.759Z,21.57
2023-09-06T07:02:59.616Z,17.41
2023-09-06T07:08:21.513Z,15.02
2023-09-06T07:13:43.922Z,13.20
2023-09-06T07:19:06.206Z,11.23
2023-09-06T07:24:28.073Z,10.07
2023-09-06T07:29:50.213Z,9.01
2023-09-06T07:35:12.176Z,8.68
2023-09-06T07:40:34.054Z,7.89
2023-09-06T07:45:59.659Z,6.83
2023-09-06T07:51:21.575Z,7.32
2023-09-06T07:56:43.349Z,6.40
2023-09-06T08:02:05.130Z,6.47
2023-09-06T08:07:26.902Z,6.48
2023-09-06T08:12:48.662Z,6.10
2023-09-06T08:18:11.415Z,5.41
2023-09-06T08:23:33.260Z,5.85
2023-09-06T08:28:55.239Z,5.98
2023-09-06T08:34:16.985Z,5.69
2023-09-06T08:39:38.730Z,5.70
2023-09-06T08:45:02.363Z,4.67
2023-09-06T08:50:24.349Z,5.53
2023-09-06T08:55:46.614Z,5.02
2023-09-06T09:01:08.641Z,5.92
2023-09-06T09:06:30.551Z,5.11
2023-09-06T09:11:53.367Z,5.04
2023-09-06T09:17:15.121Z,5.50
2023-09-06T09:22:37.002Z,4.83
2023-09-06T09:27:59.911Z,4.64
2023-09-06T09:33:28.394Z,4.68
2023-09-06T09:38:51.569Z,5.71
2023-09-06T09:44:16.970Z,6.16
2023-09-06T09:49:40.633Z,6.17
2023-09-06T09:55:03.565Z,6.79
2023-09-06T10:00:27.181Z,9.64
2023-09-06T10:05:49.167Z,11.21
2023-09-06T10:11:12.430Z,7.35
2023-09-06T10:16:34.180Z,6.94
2023-09-06T10:21:56.485Z,6.60
2023-09-06T10:27:18.273Z,6.39
2023-09-06T10:32:41.502Z,6.65
2023-09-06T10:38:11.521Z,6.64
2023-09-06T10:44:03.984Z,6.67
2023-09-06T10:49:29.292Z,7.25
2023-09-06T10:54:54.646Z,7.71
2023-09-06T11:00:20.926Z,7.14
2023-09-06T11:05:45.912Z,8.47
2023-09-06T11:11:10.676Z,9.63
2023-09-06T11:16:32.598Z,10.42
2023-09-06T11:22:10.827Z,10.01
2023-09-06T11:27:32.768Z,12.74
2023-09-06T11:32:57.627Z,13.67
2023-09-06T11:38:22.696Z,15.15
2023-09-06T11:43:44.857Z,15.61
2023-09-06T11:49:07.112Z,15.76
2023-09-06T11:54:28.931Z,16.42
2023-09-06T11:59:53.437Z,16.42
2023-09-06T12:05:15.473Z,17.02
2023-09-06T12:10:37.227Z,17.67
2023-09-06T12:16:03.296Z,18.23
2023-09-06T12:21:25.053Z,19.35
2023-09-06T12:26:46.859Z,19.44
2023-09-06T12:32:08.710Z,20.39
2023-09-06T12:37:30.417Z,19.04
2023-09-06T12:42:52.115Z,19.99
2023-09-06T12:48:13.935Z,21.24
2023-09-06T12:53:36.272Z,21.46
2023-09-06T12:58:58.043Z,21.55
2023-09-06T13:04:19.922Z,21.83
2023-09-06T13:09:41.728Z,23.05
2023-09-06T13:15:03.758Z,22.70
2023-09-06T13:20:25.612Z,23.44
2023-09-06T13:25:47.366Z,25.05
2023-09-06T13:31:09.424Z,25.99
2023-09-06T13:36:31.724Z,26.00
2023-09-06T13:41:53.794Z,26.44
2023-09-06T13:47:15.687Z,26.95
2023-09-06T13:52:37.476Z,27.19
2023-09-06T13:57:59.292Z,28.17
2023-09-06T14:03:21.214Z,29.67
2023-09-06T14:08:43.078Z,29.20
2023-09-06T14:14:04.990Z,29.58
2023-09-06T14:19:28.981Z,30.12
2023-09-06T14:24:50.694Z,30.10
2023-09-06T14:30:12.812Z,30.63
2023-09-06T14:35:41.507Z,30.41
2023-09-06T14:41:03.275Z,30.93
2023-09-06T14:46:25.152Z,31.11
2023-09-06T14:51:46.935Z,30.90
2023-09-06T14:57:08.746Z,31.25
2023-09-06T15:02:30.632Z,31.72
2023-09-06T15:07:52.501Z,32.07
2023-09-06T15:13:14.245Z,31.41
2023-09-06T15:18:36.178Z,31.97
2023-09-06T15:23:58.007Z,32.28
2023-09-06T15:29:19.748Z,32.88
2023-09-06T15:34:41.470Z,32.27
2023-09-06T15:40:03.475Z,32.45
2023-09-06T15:45:25.782Z,32.63
2023-09-06T15:50:47.587Z,32.41
2023-09-06T15:56:09.459Z,33.48
2023-09-06T16:01:32.264Z,33.38
2023-09-06T16:06:54.181Z,34.38
2023-09-06T16:12:15.974Z,34.94
2023-09-06T16:17:37.759Z,34.45
2023-09-06T16:22:59.524Z,35.60
2023-09-06T16:28:21.339Z,36.48
2023-09-06T16:33:43.165Z,36.26
2023-09-06T16:39:04.976Z,36.98
2023-09-06T16:44:28.429Z,37.47
2023-09-06T16:49:52.149Z,37.70
2023-09-06T16:55:13.930Z,38.38
2023-09-06T17:00:35.795Z,38.40
2023-09-06T17:05:57.533Z,38.92
2023-09-06T17:11:19.473Z,39.70
2023-09-06T17:16:41.399Z,41.36
2023-09-06T17:22:03.295Z,42.02
2023-09-06T17:27:25.055Z,42.84
2023-09-06T17:33:14.338Z,43.26
2023-09-06T17:38:36.245Z,44.37
2023-09-06T17:43:57.932Z,44.60
2023-09-06T17:49:19.962Z,45.28
2023-09-06T17:54:41.843Z,46.18
2023-09-06T18:00:04.942Z,47.31
2023-09-06T18:05:27.283Z,48.36
2023-09-06T18:10:49.265Z,50.05
2023-09-06T18:16:13.174Z,49.96
2023-09-06T18:21:36.255Z,51.56
2023-09-06T18:27:07.946Z,53.38
2023-09-06T18:32:30.350Z,54.07
2023-09-06T18:37:52.129Z,55.20
2023-09-06T18:43:14.211Z,56.39
2023-09-06T18:48:36.468Z,56.95
2023-09-06T18:53:58.466Z,58.88
2023-09-06T18:59:20.224Z,59.43
2023-09-06T19:04:43.624Z,60.09
2023-09-06T19:10:07.039Z,61.45
2023-09-06T19:15:28.779Z,62.29
2023-09-06T19:20:50.517Z,63.54
2023-09-06T19:26:12.313Z,64.05
2023-09-06T19:31:34.079Z,63.15
2023-09-06T19:36:56.469Z,63.82
2023-09-06T19:42:18.181Z,65.13
2023-09-06T19:47:40.100Z,66.40
2023-09-06T19:53:02.093Z,67.03
2023-09-06T19:58:23.852Z,67.65
2023-09-06T20:03:45.684Z,68.97
2023-09-06T20:09:07.688Z,69.09
2023-09-06T20:14:29.774Z,70.95
2023-09-06T20:19:51.597Z,71.53
2023-09-06T20:25:13.369Z,72.33
2023-09-06T20:30:38.929Z,73.30
2023-09-06T20:36:01.437Z,73.94
2023-09-06T20:41:23.332Z,74.99
2023-09-06T20:46:45.133Z,75.63
2023-09-06T20:52:07.049Z,76.73
2023-09-06T20:57:28.871Z,77.20
2023-09-06T21:02:50.714Z,77.92
2023-09-06T21:08:12.506Z,78.43
2023-09-06T21:13:34.296Z,78.44
2023-09-06T21:18:56.071Z,78.68
2023-09-06T21:24:17.923Z,79.14
2023-09-06T21:29:39.680Z,79.54
2023-09-06T21:35:01.807Z,79.81
2023-09-06T21:40:23.643Z,80.99
2023-09-06T21:45:45.542Z,82.10
2023-09-06T21:51:12.286Z,81.84
2023-09-06T21:56:34.087Z,83.58
2023-09-06T22:01:56.078Z,84.03
2023-09-06T22:07:17.850Z,84.26
2023-09-06T22:12:39.637Z,85.11
2023-09-06T22:18:01.498Z,85.22
2023-09-06T22:23:23.434Z,85.16
2023-09-06T22:28:45.178Z,85.51
2023-09-06T22:34:06.972Z,86.28
2023-09-06T22:39:28.949Z,87.04
2023-09-06T22:44:50.702Z,87.40
2023-09-06T22:50:12.486Z,85.91
2023-09-06T22:55:34.230Z,85.69
2023-09-06T23:01:04.412Z,85.15
2023-09-06T23:06:26.407Z,84.32
2023-09-06T23:11:49.937Z,83.88
2023-09-06T23:17:11.803Z,83.80
2023-09-06T23:22:33.646Z,85.91
2023-09-06T23:27:55.455Z,84.41
2023-09-06T23:33:17.251Z,85.59
2023-09-06T23:38:39.017Z,85.85
2023-09-06T23:44:00.770Z,86.43
2023-09-06T23:49:22.528Z,87.39
2023-09-06T23:54:48.149Z,87.33
